Time;durP1;ratioP1;P1;durP2;ratioP2;P2;SDS_P1;SDS_P2;PMS_P1;PMS_P2;Temp;Humidity;BMP_temperature;BMP_pressure;BME280_temperature;BME280_humidity;BME280_pressure;Samples;Min_cycle;Max_cycle;Signal;HPM_P1;HPM_P2
2022/07/14 00:01:23;;;;;;;4.63;3.10;;;25.50;26.10;;;;;;5057600;28;20450;-69
2022/07/14 00:03:49;;;;;;;3.50;3.07;;;25.70;24.80;;;;;;5068360;28;20409;-68
2022/07/14 00:06:16;;;;;;;8.10;3.50;;;25.80;25.40;;;;;;5052186;28;20202;-68
2022/07/14 00:08:45;;;;;;;3.30;3.00;;;26.00;24.30;;;;;;5046160;28;20891;-68
2022/07/14 00:11:11;;;;;;;4.50;3.40;;;26.00;24.90;;;;;;5052858;28;20414;-68
2022/07/14 00:13:37;;;;;;;5.33;3.13;;;26.00;24.10;;;;;;5059246;28;20474;-68
2022/07/14 00:16:03;;;;;;;4.80;3.03;;;25.90;24.00;;;;;;5063172;28;20429;-68
2022/07/14 00:18:29;;;;;;;4.50;3.43;;;25.90;23.30;;;;;;5060398;28;20235;-68
2022/07/14 00:20:54;;;;;;;4.17;3.10;;;25.80;26.30;;;;;;5059704;28;20555;-68
2022/07/14 00:23:21;;;;;;;7.37;3.40;;;25.80;25.20;;;;;;5063863;28;20183;-68
2022/07/14 00:25:47;;;;;;;10.73;3.27;;;25.60;26.50;;;;;;5056812;28;20225;-68
2022/07/14 00:28:13;;;;;;;3.50;3.20;;;25.80;26.30;;;;;;5062515;28;20430;-68
2022/07/14 00:30:38;;;;;;;6.70;3.10;;;25.60;26.10;;;;;;5063485;28;20471;-68
2022/07/14 00:33:04;;;;;;;4.90;3.30;;;25.50;27.20;;;;;;5063226;28;20179;-69
2022/07/14 00:35:29;;;;;;;3.53;2.87;;;25.50;26.30;;;;;;5063425;28;20190;-68
2022/07/14 00:37:55;;;;;;;3.73;3.13;;;25.50;26.90;;;;;;5060296;28;20194;-68
2022/07/14 00:40:21;;;;;;;6.33;3.50;;;25.60;27.40;;;;;;5050558;28;20203;-68
2022/07/14 00:42:49;;;;;;;5.13;3.87;;;25.50;26.30;;;;;;5052200;28;20553;-68
2022/07/14 00:45:17;;;;;;;6.50;4.00;;;25.60;25.20;;;;;;5050152;28;20549;-67
2022/07/14 00:47:44;;;;;;;5.50;3.63;;;25.80;25.30;;;;;;5059419;28;20832;-68
2022/07/14 00:50:12;;;;;;;7.30;3.80;;;25.70;26.80;;;;;;5068327;28;20519;-68
2022/07/14 00:52:38;;;;;;;7.17;3.73;;;25.40;27.20;;;;;;5054751;28;20445;-68
2022/07/14 00:55:04;;;;;;;5.93;3.40;;;25.20;27.30;;;;;;5050853;28;20478;-68
2022/07/14 00:57:30;;;;;;;4.13;3.40;;;25.20;28.00;;;;;;5062588;28;20436;-67
2022/07/14 00:59:58;;;;;;;3.77;3.50;;;25.10;28.40;;;;;;5064416;28;20462;-67
2022/07/14 01:02:24;;;;;;;4.73;3.77;;;25.00;27.50;;;;;;5051353;28;20247;-67
2022/07/14 01:04:50;;;;;;;8.63;3.47;;;25.10;27.70;;;;;;5057001;28;20921;-67
2022/07/14 01:07:18;;;;;;;3.70;3.03;;;25.00;28.30;;;;;;5058724;28;20190;-67
2022/07/14 01:09:44;;;;;;;7.40;3.30;;;24.80;28.90;;;;;;5063956;28;20451;-69
2022/07/14 01:12:10;;;;;;;9.00;3.70;;;25.00;27.00;;;;;;5063048;28;20456;-67
2022/07/14 01:14:37;;;;;;;3.97;3.20;;;25.00;27.50;;;;;;5055054;28;20439;-67
2022/07/14 01:17:03;;;;;;;4.40;3.30;;;24.80;28.40;;;;;;5063100;28;20436;-67
2022/07/14 01:19:29;;;;;;;4.30;3.57;;;24.70;27.80;;;;;;5059752;28;20963;-67
2022/07/14 01:21:56;;;;;;;4.40;3.17;;;24.60;28.10;;;;;;5064241;28;20456;-67
2022/07/14 01:24:23;;;;;;;3.73;3.23;;;24.70;28.70;;;;;;5054312;28;20551;-69
2022/07/14 01:26:49;;;;;;;5.17;3.33;;;24.70;27.80;;;;;;5057673;28;20917;-67
2022/07/14 01:29:15;;;;;;;4.10;3.17;;;24.70;28.20;;;;;;5055039;28;21010;-67
2022/07/14 01:31:41;;;;;;;6.73;3.40;;;24.60;27.90;;;;;;5065480;28;20421;-67
2022/07/14 01:34:07;;;;;;;7.13;3.07;;;24.80;27.30;;;;;;5049800;28;20940;-67
2022/07/14 01:36:32;;;;;;;4.23;3.23;;;24.50;28.50;;;;;;5055750;28;20216;-67
2022/07/14 01:38:58;;;;;;;4.20;3.00;;;24.40;28.00;;;;;;5055674;28;20484;-67
2022/07/14 01:41:24;;;;;;;6.80;3.43;;;24.40;28.60;;;;;;5053776;28;20235;-69
2022/07/14 01:43:50;;;;;;;4.47;3.10;;;24.60;27.70;;;;;;5059148;28;20182;-68
2022/07/14 01:46:16;;;;;;;9.83;3.30;;;24.40;28.40;;;;;;5054504;28;20432;-68
2022/07/14 01:48:41;;;;;;;4.00;3.43;;;24.30;28.40;;;;;;5065422;28;20290;-67
2022/07/14 01:51:07;;;;;;;7.10;3.20;;;24.00;28.90;;;;;;5062327;28;20190;-67
2022/07/14 01:53:33;;;;;;;4.97;3.57;;;23.80;29.70;;;;;;5061314;28;20186;-67
2022/07/14 01:56:00;;;;;;;5.00;3.50;;;23.80;30.80;;;;;;5061665;28;20535;-67
2022/07/14 01:58:26;;;;;;;5.77;3.60;;;23.90;28.80;;;;;;5050189;28;20467;-67
2022/07/14 02:03:40;;;;;;;8.73;3.57;;;23.90;28.50;;;;;;5031028;28;20224;-70
2022/07/14 02:06:06;;;;;;;5.33;3.47;;;23.90;29.70;;;;;;5057678;28;20524;-67
2022/07/14 02:08:31;;;;;;;9.33;3.60;;;23.90;30.00;;;;;;5054484;28;20678;-68
2022/07/14 02:13:41;;;;;;;4.50;3.50;;;24.20;29.40;;;;;;5061793;28;20618;-67
2022/07/14 02:16:08;;;;;;;4.83;3.43;;;24.00;29.00;;;;;;5050963;28;20460;-68
2022/07/14 02:18:34;;;;;;;8.13;3.70;;;23.80;30.40;;;;;;5054781;28;20574;-68
2022/07/14 02:21:00;;;;;;;7.43;4.93;;;23.70;31.20;;;;;;5053545;28;20425;-68
2022/07/14 02:23:25;;;;;;;8.00;3.67;;;23.90;29.20;;;;;;5053792;28;20444;-67
2022/07/14 02:25:51;;;;;;;5.70;3.90;;;24.00;29.80;;;;;;5057423;28;20193;-67
2022/07/14 02:28:17;;;;;;;6.20;3.80;;;24.10;29.00;;;;;;5062301;28;20584;-67
2022/07/14 02:30:44;;;;;;;5.43;4.33;;;23.90;29.50;;;;;;5070772;28;20547;-71
2022/07/14 02:33:10;;;;;;;15.57;4.17;;;24.00;30.50;;;;;;5073196;28;20433;-67
2022/07/14 02:35:36;;;;;;;5.43;3.40;;;23.70;30.80;;;;;;5060308;28;20430;-67
2022/07/14 02:38:02;;;;;;;12.70;4.50;;;23.50;30.80;;;;;;5054937;28;20280;-68
2022/07/14 02:40:28;;;;;;;7.20;4.00;;;23.40;31.00;;;;;;5053359;28;20515;-68
2022/07/14 02:42:53;;;;;;;5.73;4.00;;;23.30;31.70;;;;;;5056151;28;20460;-68
2022/07/14 02:45:19;;;;;;;8.73;4.20;;;23.20;31.90;;;;;;5058723;28;20603;-67
2022/07/14 02:47:45;;;;;;;24.00;4.63;;;23.40;30.80;;;;;;5054766;28;20283;-67
2022/07/14 02:50:10;;;;;;;6.20;4.30;;;23.30;31.70;;;;;;5061066;28;20267;-67
2022/07/14 02:52:37;;;;;;;7.73;4.17;;;23.10;32.00;;;;;;5057913;28;20423;-67
2022/07/14 02:55:03;;;;;;;5.63;4.53;;;23.00;32.50;;;;;;5064619;28;20189;-67
2022/07/14 02:57:29;;;;;;;5.00;4.30;;;23.00;32.90;;;;;;5054950;28;20436;-67
2022/07/14 02:59:55;;;;;;;11.50;4.80;;;23.20;31.70;;;;;;5055204;28;21261;-67
2022/07/14 03:02:21;;;;;;;11.00;5.10;;;23.40;30.20;;;;;;5056285;28;20454;-68
2022/07/14 03:04:46;;;;;;;6.50;4.43;;;23.50;30.00;;;;;;5054015;28;20659;-67
2022/07/14 03:07:12;;;;;;;5.77;4.50;;;23.60;29.60;;;;;;5046069;28;20179;-68
2022/07/14 03:09:38;;;;;;;6.53;4.20;;;23.70;29.40;;;;;;5054088;28;20730;-68
2022/07/14 03:12:03;;;;;;;5.57;3.90;;;23.60;29.40;;;;;;5053652;28;20216;-67
2022/07/14 03:14:29;;;;;;;6.33;4.30;;;23.50;31.60;;;;;;5054732;28;20178;-67
2022/07/14 03:16:55;;;;;;;6.10;4.60;;;23.30;32.10;;;;;;5060538;28;20441;-67
2022/07/14 03:19:21;;;;;;;4.90;4.10;;;23.10;32.60;;;;;;5054942;28;20255;-67
2022/07/14 03:21:46;;;;;;;5.80;3.93;;;23.00;32.10;;;;;;5068822;28;20207;-69
2022/07/14 03:24:13;;;;;;;6.13;4.20;;;22.90;32.60;;;;;;5064332;28;20197;-68
2022/07/14 03:26:39;;;;;;;5.53;4.10;;;22.90;32.30;;;;;;5072688;28;20183;-67
2022/07/14 03:29:05;;;;;;;6.13;4.33;;;23.00;32.30;;;;;;5056264;28;20514;-67
2022/07/14 03:31:30;;;;;;;5.30;3.80;;;23.00;32.20;;;;;;5053825;28;20452;-67
2022/07/14 03:33:56;;;;;;;8.10;4.40;;;22.70;33.40;;;;;;5056262;28;20754;-67
2022/07/14 03:36:22;;;;;;;5.47;4.20;;;22.80;33.00;;;;;;5047840;28;20347;-67
2022/07/14 03:38:48;;;;;;;4.90;3.60;;;22.70;32.10;;;;;;5072426;28;20207;-67
2022/07/14 03:41:13;;;;;;;5.33;4.07;;;22.90;31.00;;;;;;5063764;28;20305;-68
2022/07/14 03:43:39;;;;;;;9.23;4.40;;;22.60;31.60;;;;;;5057655;28;20625;-67
2022/07/14 03:46:06;;;;;;;5.63;4.10;;;22.50;33.00;;;;;;5061156;28;20271;-68
2022/07/14 03:48:33;;;;;;;8.47;3.67;;;22.40;32.00;;;;;;5061319;28;20198;-67
2022/07/14 03:50:59;;;;;;;4.20;3.60;;;22.30;32.90;;;;;;5060868;28;20789;-68
2022/07/14 03:53:24;;;;;;;10.07;3.87;;;22.20;32.70;;;;;;5068259;28;20425;-68
2022/07/14 03:55:50;;;;;;;5.60;3.43;;;22.20;33.10;;;;;;5059329;28;20437;-67
2022/07/14 03:58:16;;;;;;;5.30;3.30;;;22.10;32.30;;;;;;5062772;28;20203;-67
2022/07/14 04:00:41;;;;;;;4.17;3.30;;;22.10;32.80;;;;;;5052593;28;20183;-67
2022/07/14 04:03:07;;;;;;;4.47;3.33;;;22.30;31.70;;;;;;5059552;28;20687;-67
2022/07/14 04:05:33;;;;;;;11.13;3.47;;;22.40;31.10;;;;;;5061138;28;20172;-66
2022/07/14 04:07:59;;;;;;;3.77;3.33;;;22.40;32.00;;;;;;5042835;28;20181;-67
2022/07/14 04:10:24;;;;;;;6.00;3.93;;;22.50;30.80;;;;;;5063935;28;20189;-69
2022/07/14 04:12:50;;;;;;;3.70;3.10;;;22.40;31.00;;;;;;5057462;28;20198;-67
2022/07/14 04:15:16;;;;;;;6.50;3.30;;;22.30;31.40;;;;;;5062676;28;20194;-68
2022/07/14 04:17:42;;;;;;;5.77;3.13;;;22.30;32.10;;;;;;5066003;28;20819;-68
2022/07/14 04:20:08;;;;;;;5.40;3.70;;;22.40;31.70;;;;;;5060682;28;20206;-67
2022/07/14 04:22:33;;;;;;;7.40;3.87;;;22.50;31.20;;;;;;5058370;28;20561;-67
2022/07/14 04:24:59;;;;;;;5.60;3.60;;;22.50;31.90;;;;;;5065317;28;20425;-67
2022/07/14 04:27:25;;;;;;;5.93;3.83;;;22.50;31.00;;;;;;5059885;28;20444;-68
2022/07/14 04:29:51;;;;;;;9.63;3.90;;;22.40;31.40;;;;;;5058051;28;20210;-67
2022/07/14 04:32:17;;;;;;;6.67;4.10;;;22.00;30.70;;;;;;5055489;28;20213;-67
2022/07/14 04:34:44;;;;;;;8.57;4.20;;;22.20;31.40;;;;;;5062103;28;20884;-68
2022/07/14 04:37:10;;;;;;;10.70;4.27;;;22.20;30.60;;;;;;5055982;28;20185;-67
2022/07/14 04:39:36;;;;;;;10.73;4.50;;;22.50;31.60;;;;;;5058516;28;20621;-67
2022/07/14 04:42:03;;;;;;;10.23;4.27;;;22.30;30.00;;;;;;5065892;28;21044;-67
2022/07/14 04:44:29;;;;;;;8.10;4.07;;;22.30;30.60;;;;;;5052875;28;20200;-68
2022/07/14 04:46:55;;;;;;;5.60;4.53;;;22.70;31.90;;;;;;5054525;28;20442;-67
2022/07/14 04:52:05;;;;;;;12.67;5.00;;;22.80;30.80;;;;;;5061840;28;20452;-68
2022/07/14 04:54:33;;;;;;;13.43;5.30;;;23.10;30.80;;;;;;5056241;28;20431;-68
2022/07/14 04:57:00;;;;;;;8.90;4.40;;;23.40;31.00;;;;;;5057499;28;20438;-67
2022/07/14 04:59:26;;;;;;;16.13;4.40;;;23.50;31.80;;;;;;5051827;28;20954;-67
2022/07/14 05:01:53;;;;;;;12.10;5.10;;;23.50;31.20;;;;;;5053923;28;20464;-68
2022/07/14 05:04:19;;;;;;;7.10;4.10;;;23.50;31.20;;;;;;5056306;28;20429;-67
2022/07/14 05:06:46;;;;;;;5.80;4.37;;;23.70;31.70;;;;;;5067961;28;20464;-68
2022/07/14 05:09:13;;;;;;;6.60;4.60;;;23.80;31.50;;;;;;5058792;28;20452;-68
2022/07/14 05:11:40;;;;;;;6.60;4.00;;;23.70;31.50;;;;;;5055552;28;20437;-69
2022/07/14 05:14:05;;;;;;;7.03;3.93;;;23.70;32.40;;;;;;5059474;28;20454;-69
2022/07/14 05:16:31;;;;;;;8.60;3.83;;;23.80;32.00;;;;;;5052158;28;20555;-69
2022/07/14 05:18:57;;;;;;;10.67;4.73;;;23.80;31.50;;;;;;5068732;28;20241;-70
2022/07/14 05:21:24;;;;;;;11.47;4.57;;;23.80;31.40;;;;;;5054757;28;20577;-68
2022/07/14 05:23:49;;;;;;;7.80;4.50;;;24.00;30.40;;;;;;5061690;28;20613;-69
2022/07/14 05:26:17;;;;;;;8.30;4.70;;;24.00;31.80;;;;;;5054834;28;20440;-70
2022/07/14 05:28:43;;;;;;;11.53;5.47;;;23.80;33.10;;;;;;5048118;28;20215;-69
2022/07/14 05:31:09;;;;;;;12.30;4.90;;;23.80;31.30;;;;;;5046237;28;20439;-69
2022/07/14 05:33:35;;;;;;;8.57;4.60;;;23.50;29.60;;;;;;5053215;28;20441;-69
2022/07/14 05:36:01;;;;;;;8.87;5.40;;;23.30;29.50;;;;;;5042718;28;20511;-69
2022/07/14 05:38:27;;;;;;;13.43;5.13;;;23.30;28.30;;;;;;5049167;28;20453;-69
2022/07/14 05:40:53;;;;;;;17.00;5.30;;;23.40;28.80;;;;;;5056291;28;20980;-69
2022/07/14 05:43:19;;;;;;;9.10;5.40;;;23.50;28.50;;;;;;5050269;28;20442;-69
2022/07/14 05:45:46;;;;;;;19.00;6.40;;;23.50;28.50;;;;;;5051504;28;20414;-68
2022/07/14 05:48:11;;;;;;;12.80;6.73;;;23.20;29.10;;;;;;5059461;28;20204;-68
2022/07/14 05:50:37;;;;;;;9.30;4.93;;;23.00;29.60;;;;;;5064002;28;20452;-69
2022/07/14 05:53:02;;;;;;;7.63;4.17;;;23.00;29.00;;;;;;5043009;28;20692;-69
2022/07/14 05:55:28;;;;;;;7.00;4.10;;;23.30;28.40;;;;;;5051378;28;20183;-70
2022/07/14 05:57:54;;;;;;;5.50;4.00;;;23.20;28.80;;;;;;5058790;28;20199;-69
2022/07/14 06:00:20;;;;;;;9.20;4.20;;;22.70;29.60;;;;;;5060457;28;20256;-68
2022/07/14 06:02:45;;;;;;;7.37;4.07;;;23.00;29.10;;;;;;5069783;28;20211;-67
2022/07/14 06:05:11;;;;;;;6.70;4.30;;;23.60;28.50;;;;;;5062885;28;20228;-67
2022/07/14 06:07:38;;;;;;;13.20;3.90;;;23.40;28.40;;;;;;5059319;28;20176;-67
2022/07/14 06:10:05;;;;;;;5.03;3.80;;;23.80;28.20;;;;;;5059297;28;21007;-68
2022/07/14 06:12:31;;;;;;;14.53;4.10;;;24.50;27.10;;;;;;5059390;28;20850;-67
2022/07/14 06:14:57;;;;;;;5.53;4.10;;;24.30;27.40;;;;;;5061103;28;20432;-67
2022/07/14 06:17:23;;;;;;;11.70;4.33;;;24.50;27.20;;;;;;5050108;28;20426;-71
2022/07/14 06:19:49;;;;;;;10.10;3.90;;;24.20;27.60;;;;;;5063969;28;20575;-69
2022/07/14 06:22:14;;;;;;;8.83;4.00;;;24.60;27.50;;;;;;5062279;28;20207;-67
2022/07/14 06:24:43;;;;;;;6.00;4.40;;;24.90;26.60;;;;;;5050284;28;20175;-67
2022/07/14 06:27:09;;;;;;;4.67;4.00;;;25.10;26.20;;;;;;5061916;28;20212;-71
2022/07/14 06:29:34;;;;;;;8.67;3.67;;;25.00;26.40;;;;;;5057764;28;20491;-70
2022/07/14 06:32:00;;;;;;;4.87;3.90;;;25.40;25.70;;;;;;5062700;28;20727;-68
2022/07/14 06:34:27;;;;;;;9.10;3.77;;;25.70;25.80;;;;;;5060814;28;20179;-68
2022/07/14 06:36:52;;;;;;;4.30;3.60;;;25.60;25.00;;;;;;5064225;28;20654;-68
2022/07/14 06:39:18;;;;;;;27.53;3.93;;;25.70;25.60;;;;;;5050333;28;20449;-68
2022/07/14 06:41:43;;;;;;;7.00;4.13;;;25.90;25.80;;;;;;5044240;28;20203;-71
2022/07/14 06:44:09;;;;;;;5.50;3.57;;;26.00;25.20;;;;;;5048992;28;20262;-67
2022/07/14 06:46:37;;;;;;;10.40;3.60;;;26.10;25.50;;;;;;5039863;28;20215;-68
2022/07/14 06:49:02;;;;;;;9.83;4.00;;;25.70;25.20;;;;;;5051258;28;20192;-69
2022/07/14 06:51:28;;;;;;;11.17;3.80;;;25.60;26.10;;;;;;5047232;28;20440;-67
2022/07/14 06:53:54;;;;;;;5.27;4.00;;;25.70;25.70;;;;;;5049240;28;20179;-70
2022/07/14 06:56:20;;;;;;;10.73;3.73;;;25.90;25.30;;;;;;5052583;28;20804;-70
2022/07/14 06:58:45;;;;;;;8.63;3.40;;;25.80;25.50;;;;;;5047986;28;20631;-68
2022/07/14 07:01:11;;;;;;;7.57;3.83;;;26.10;26.00;;;;;;5055301;28;20183;-68
2022/07/14 07:03:36;;;;;;;8.57;3.83;;;26.20;24.80;;;;;;5058294;28;20179;-68
2022/07/14 07:08:46;;;;;;;6.40;4.07;;;25.90;25.30;;;;;;5044753;28;20273;-69
2022/07/14 07:11:12;;;;;;;4.60;3.87;;;25.70;24.90;;;;;;5048678;28;20430;-68
2022/07/14 07:13:38;;;;;;;8.33;4.30;;;26.10;25.50;;;;;;5053284;28;20707;-68
2022/07/14 07:16:04;;;;;;;9.53;4.90;;;26.40;24.80;;;;;;5050140;28;20270;-68
2022/07/14 07:18:31;;;;;;;8.10;4.67;;;26.60;24.20;;;;;;5049815;28;20200;-71
2022/07/14 07:20:57;;;;;;;8.50;4.43;;;26.40;24.60;;;;;;5045476;28;20484;-70
2022/07/14 07:23:22;;;;;;;7.63;4.30;;;26.50;24.70;;;;;;5039650;28;20461;-68
2022/07/14 07:25:48;;;;;;;9.03;5.10;;;26.60;24.80;;;;;;5060256;28;20225;-68
2022/07/14 07:28:13;;;;;;;13.00;4.67;;;26.50;24.70;;;;;;5063488;28;20190;-68
2022/07/14 07:30:39;;;;;;;8.83;4.30;;;26.10;25.30;;;;;;5052035;28;20222;-68
2022/07/14 07:33:05;;;;;;;27.43;4.40;;;26.00;25.40;;;;;;5056231;28;20183;-69
2022/07/14 07:35:30;;;;;;;11.87;4.90;;;26.00;25.40;;;;;;5069491;28;20175;-68
2022/07/14 07:37:56;;;;;;;7.47;4.20;;;26.30;25.50;;;;;;5060739;28;20535;-68
2022/07/14 07:40:22;;;;;;;8.87;4.40;;;26.40;24.60;;;;;;5056912;28;20234;-68
2022/07/14 07:42:47;;;;;;;9.20;4.87;;;26.10;25.30;;;;;;5052846;28;20215;-68
2022/07/14 07:45:13;;;;;;;13.40;5.17;;;26.40;25.10;;;;;;5056971;28;20203;-68
2022/07/14 07:47:39;;;;;;;9.80;5.00;;;26.70;24.50;;;;;;5062429;28;20179;-68
2022/07/14 07:50:05;;;;;;;5.97;4.20;;;27.10;24.20;;;;;;5059554;28;20621;-68
2022/07/14 07:52:31;;;;;;;5.97;4.47;;;26.80;24.60;;;;;;5058350;28;20262;-69
2022/07/14 07:54:57;;;;;;;5.27;4.40;;;27.20;24.70;;;;;;5059300;28;20500;-68
2022/07/14 07:57:23;;;;;;;14.67;4.80;;;27.40;25.20;;;;;;5071760;28;20567;-68
2022/07/14 07:59:51;;;;;;;8.10;5.13;;;27.70;24.60;;;;;;5052915;28;20252;-68
2022/07/14 08:02:18;;;;;;;6.67;3.93;;;27.90;23.70;;;;;;5042567;28;20298;-68
2022/07/14 08:04:44;;;;;;;15.30;4.23;;;28.00;23.60;;;;;;5054173;28;20429;-69
2022/07/14 08:07:09;;;;;;;6.90;4.27;;;27.30;23.50;;;;;;5048003;28;20406;-68
2022/07/14 08:09:35;;;;;;;4.83;4.20;;;27.60;25.20;;;;;;5051699;28;20233;-68
2022/07/14 08:12:01;;;;;;;15.23;4.93;;;27.50;22.60;;;;;;5051625;28;20180;-69
2022/07/14 08:17:11;;;;;;;8.13;4.23;;;27.60;23.10;;;;;;5053006;28;20436;-67
2022/07/14 08:19:37;;;;;;;8.00;4.30;;;27.70;23.00;;;;;;5052313;28;20442;-67
2022/07/14 08:22:03;;;;;;;11.87;4.13;;;28.20;22.20;;;;;;5054351;28;20255;-75
2022/07/14 08:24:29;;;;;;;8.03;4.10;;;27.60;22.10;;;;;;5052138;28;20175;-70
2022/07/14 08:26:55;;;;;;;7.80;4.20;;;28.00;24.00;;;;;;5049580;28;20434;-67
2022/07/14 08:29:20;;;;;;;6.70;4.40;;;28.50;21.30;;;;;;5047232;28;20200;-70
2022/07/14 08:31:46;;;;;;;6.60;3.80;;;28.80;21.70;;;;;;5053973;28;20449;-66
2022/07/14 08:34:12;;;;;;;6.37;3.90;;;28.90;21.40;;;;;;5060163;28;20184;-67
2022/07/14 08:36:39;;;;;;;9.03;4.20;;;28.40;21.30;;;;;;5060020;28;20221;-68
2022/07/14 08:39:08;;;;;;;7.77;3.93;;;28.50;21.40;;;;;;5055165;28;20923;-68
2022/07/14 08:41:36;;;;;;;8.33;3.80;;;28.70;19.90;;;;;;5048420;28;21040;-67
2022/07/14 08:44:03;;;;;;;7.43;3.57;;;28.70;21.00;;;;;;5050113;28;20435;-68
2022/07/14 08:46:31;;;;;;;10.93;3.67;;;29.20;21.90;;;;;;5051350;28;20433;-68
2022/07/14 08:48:57;;;;;;;4.20;3.30;;;29.40;19.90;;;;;;5048333;28;20503;-68
2022/07/14 08:51:24;;;;;;;9.70;3.80;;;29.40;19.00;;;;;;5049859;28;20442;-68
2022/07/14 08:53:49;;;;;;;10.77;3.60;;;28.90;20.50;;;;;;5033512;28;20480;-68
2022/07/14 08:56:15;;;;;;;5.50;3.50;;;29.30;20.20;;;;;;5051177;28;20474;-67
2022/07/14 08:58:41;;;;;;;5.00;3.23;;;29.20;19.80;;;;;;5030448;28;20218;-68
2022/07/14 09:01:07;;;;;;;5.40;3.20;;;29.70;18.40;;;;;;5050256;28;20184;-68
2022/07/14 09:03:33;;;;;;;18.60;3.50;;;29.20;18.80;;;;;;5052763;28;20909;-68
2022/07/14 09:05:59;;;;;;;9.50;3.50;;;29.20;19.90;;;;;;5053922;28;20433;-69
2022/07/14 09:08:25;;;;;;;3.63;3.30;;;29.70;19.00;;;;;;5048839;28;20280;-68
2022/07/14 09:10:50;;;;;;;3.30;3.07;;;29.60;19.10;;;;;;5051814;28;20175;-68
2022/07/14 09:13:21;;;;;;;8.60;3.17;;;29.70;19.30;;;;;;5049870;28;20192;-68
2022/07/14 09:15:48;;;;;;;7.87;3.10;;;29.40;18.80;;;;;;5049560;28;20546;-69
2022/07/14 09:18:27;;;;;;;6.37;2.90;;;29.80;17.80;;;;;;5051476;28;20524;-69
2022/07/14 09:20:55;;;;;;;12.83;3.30;;;29.90;18.50;;;;;;5050177;28;20437;-69
2022/07/14 09:23:37;;;;;;;21.53;3.30;;;29.80;16.20;;;;;;5048797;28;20552;-69
2022/07/14 09:26:18;;;;;;;5.63;3.00;;;29.90;17.90;;;;;;5065369;28;20737;-69
2022/07/14 09:28:49;;;;;;;12.00;3.47;;;29.70;17.20;;;;;;5059043;28;20446;-69
2022/07/14 09:31:21;;;;;;;4.13;2.90;;;29.80;18.20;;;;;;5066846;28;20409;-69
2022/07/14 09:33:48;;;;;;;4.77;2.90;;;30.80;15.00;;;;;;5056524;28;20421;-71
2022/07/14 09:36:31;;;;;;;8.90;2.90;;;31.30;13.70;;;;;;5060939;28;20429;-69
2022/07/14 09:39:02;;;;;;;6.07;3.07;;;31.60;13.10;;;;;;5058777;28;20925;-69
2022/07/14 09:41:30;;;;;;;3.10;2.70;;;31.90;12.60;;;;;;5046400;28;20584;-69
2022/07/14 09:44:29;;;;;;;5.23;3.10;;;32.30;12.70;;;;;;5055177;28;20896;-69
2022/07/14 09:46:56;;;;;;;12.23;3.00;;;31.90;12.20;;;;;;4989155;28;20531;-69
2022/07/14 09:49:27;;;;;;;3.60;2.60;;;31.60;12.30;;;;;;4988910;28;20441;-69
2022/07/14 09:52:06;;;;;;;6.07;2.80;;;31.60;13.80;;;;;;4988622;28;20924;-69
2022/07/14 09:54:41;;;;;;;3.77;2.90;;;32.10;12.00;;;;;;4981057;28;20433;-70
2022/07/14 09:57:07;;;;;;;5.30;2.53;;;32.40;12.30;;;;;;4988876;28;20440;-69
2022/07/14 09:59:52;;;;;;;5.33;2.97;;;32.00;11.20;;;;;;4988673;28;20465;-69
2022/07/14 10:02:29;;;;;;;10.30;3.03;;;31.20;13.30;;;;;;4988233;28;20887;-69
2022/07/14 10:05:01;;;;;;;5.90;2.70;;;31.40;12.20;;;;;;4988787;28;21062;-69
2022/07/14 10:07:32;;;;;;;6.13;2.57;;;31.30;11.20;;;;;;4972777;28;20804;-69
2022/07/14 10:10:05;;;;;;;4.97;2.63;;;30.90;11.50;;;;;;4988813;28;20476;-71
2022/07/14 10:12:31;;;;;;;5.50;3.00;;;31.60;10.70;;;;;;4988097;28;20432;-69
2022/07/14 10:15:03;;;;;;;4.50;2.83;;;31.70;10.50;;;;;;4988693;28;20967;-69
2022/07/14 10:17:30;;;;;;;6.80;3.77;;;31.50;10.50;;;;;;4988838;28;20425;-69
2022/07/14 10:19:56;;;;;;;6.33;2.70;;;32.00;10.30;;;;;;4988655;28;20612;-68
2022/07/14 10:22:23;;;;;;;4.60;3.00;;;32.40;10.20;;;;;;5023653;28;20556;-70
2022/07/14 10:24:50;;;;;;;6.97;2.97;;;32.40;9.70;;;;;;5069451;28;20461;-70
2022/07/14 10:27:18;;;;;;;14.03;2.80;;;33.10;8.60;;;;;;5061605;28;20621;-68
2022/07/14 10:29:51;;;;;;;9.93;2.83;;;33.20;7.60;;;;;;5061405;28;20448;-69
2022/07/14 10:32:53;;;;;;;3.03;2.83;;;33.00;8.70;;;;;;5053257;28;20476;-69
2022/07/14 10:35:50;;;;;;;6.70;2.90;;;32.50;8.40;;;;;;5054832;28;20428;-68
2022/07/14 10:38:35;;;;;;;4.50;2.73;;;32.30;9.40;;;;;;5055679;28;20417;-68
2022/07/14 10:41:11;;;;;;;3.90;2.40;;;33.10;7.50;;;;;;5050461;28;20501;-69
2022/07/14 10:44:01;;;;;;;4.23;2.83;;;32.70;7.60;;;;;;5058770;28;20433;-69
2022/07/14 10:46:42;;;;;;;3.73;3.10;;;33.10;8.30;;;;;;5068423;28;20417;-70
2022/07/14 10:49:10;;;;;;;2.83;2.60;;;33.50;7.70;;;;;;5054434;28;20480;-69
2022/07/14 10:51:49;;;;;;;6.43;2.83;;;33.40;7.80;;;;;;5063235;28;20424;-69
2022/07/14 10:54:24;;;;;;;7.43;2.53;;;33.40;8.10;;;;;;5065424;28;20788;-69
2022/07/14 10:57:06;;;;;;;4.30;2.87;;;33.50;7.60;;;;;;5049844;28;20959;-69
2022/07/14 10:59:34;;;;;;;4.17;2.73;;;33.70;7.40;;;;;;5063598;28;20467;-69
2022/07/14 11:02:12;;;;;;;8.70;2.80;;;34.20;7.60;;;;;;5060355;28;20453;-69
2022/07/14 11:04:56;;;;;;;3.83;2.50;;;34.50;6.80;;;;;;5063267;28;20413;-69
2022/07/14 11:07:46;;;;;;;5.30;2.60;;;33.60;8.20;;;;;;5065591;28;20433;-69
2022/07/14 11:10:18;;;;;;;3.50;2.80;;;33.20;8.20;;;;;;5049244;28;20430;-69
2022/07/14 11:13:02;;;;;;;4.77;2.73;;;33.70;7.20;;;;;;5061508;28;20479;-70
2022/07/14 11:15:42;;;;;;;9.93;2.80;;;33.70;7.40;;;;;;5043574;28;20468;-69
2022/07/14 11:18:17;;;;;;;5.73;3.10;;;33.50;7.30;;;;;;5048063;28;20520;-69
2022/07/14 11:21:00;;;;;;;3.43;2.63;;;34.30;7.50;;;;;;5054319;28;20432;-70
2022/07/14 11:23:29;;;;;;;6.13;2.70;;;34.20;7.70;;;;;;5061512;28;21167;-70
2022/07/14 11:25:56;;;;;;;6.50;2.60;;;34.00;7.70;;;;;;5072378;28;20912;-69
2022/07/14 11:28:31;;;;;;;4.80;2.80;;;34.20;6.50;;;;;;5065306;28;20877;-69
2022/07/14 11:31:18;;;;;;;6.03;2.77;;;34.50;6.60;;;;;;5051729;28;20975;-68
2022/07/14 11:36:30;;;;;;;4.07;2.80;;;33.70;6.10;;;;;;5069036;28;20840;-69
2022/07/14 11:39:14;;;;;;;5.60;2.53;;;34.10;6.00;;;;;;5061112;28;20438;-70
2022/07/14 11:41:49;;;;;;;2.60;2.40;;;35.10;6.20;;;;;;5060904;28;20463;-70
2022/07/14 11:44:35;;;;;;;3.10;2.47;;;36.80;6.00;;;;;;5066448;28;20441;-72
2022/07/14 11:47:03;;;;;;;5.07;2.50;;;38.40;3.50;;;;;;5061686;28;20417;-69
2022/07/14 11:49:30;;;;;;;9.00;2.80;;;38.50;3.50;;;;;;5053198;28;20442;-69
2022/07/14 11:51:56;;;;;;;11.03;2.80;;;39.00;2.60;;;;;;5053234;28;20789;-69
2022/07/14 11:54:23;;;;;;;5.00;2.70;;;38.80;1.80;;;;;;5058796;28;20938;-69
2022/07/14 11:56:49;;;;;;;6.83;2.73;;;38.50;2.50;;;;;;5063392;28;20505;-69
2022/07/14 11:59:21;;;;;;;7.43;2.50;;;37.80;2.40;;;;;;5071814;28;20543;-69
2022/07/14 12:01:47;;;;;;;3.83;2.50;;;35.90;3.70;;;;;;5063639;28;20814;-69
2022/07/14 12:04:16;;;;;;;3.93;2.60;;;35.60;4.50;;;;;;5068537;28;20433;-70
2022/07/14 12:06:47;;;;;;;5.30;2.40;;;36.40;3.70;;;;;;5068409;28;20546;-69
2022/07/14 12:09:16;;;;;;;4.60;2.50;;;37.30;4.00;;;;;;5049020;28;20468;-69
2022/07/14 12:11:52;;;;;;;9.60;2.47;;;37.10;2.80;;;;;;5066639;28;20417;-69
2022/07/14 12:14:18;;;;;;;8.53;2.37;;;37.60;3.20;;;;;;5052813;28;20444;-69
2022/07/14 12:16:45;;;;;;;6.03;2.40;;;37.50;2.30;;;;;;5060380;28;20948;-69
2022/07/14 12:19:11;;;;;;;4.07;2.50;;;37.20;3.00;;;;;;5055564;28;20867;-70
2022/07/14 12:21:37;;;;;;;4.90;3.00;;;36.60;4.00;;;;;;5070711;28;20457;-70
2022/07/14 12:24:05;;;;;;;6.00;2.70;;;37.00;3.10;;;;;;5069986;28;20735;-70
2022/07/14 12:26:32;;;;;;;4.23;2.80;;;37.30;3.80;;;;;;5065219;28;20916;-71
2022/07/14 12:29:00;;;;;;;7.10;2.57;;;36.40;3.60;;;;;;5063084;28;20448;-70
2022/07/14 12:31:26;;;;;;;4.50;2.67;;;36.40;3.50;;;;;;5071260;28;20417;-70
2022/07/14 12:33:54;;;;;;;8.00;2.87;;;36.60;3.50;;;;;;5064264;28;20783;-70
2022/07/14 12:36:22;;;;;;;6.30;2.93;;;36.20;4.30;;;;;;5055209;28;20176;-71
2022/07/14 12:38:49;;;;;;;2.90;2.70;;;37.20;3.80;;;;;;5071132;28;20936;-70
2022/07/14 12:41:20;;;;;;;8.10;2.90;;;36.70;4.00;;;;;;5061381;28;20418;-70
2022/07/14 12:43:46;;;;;;;9.23;2.90;;;37.90;3.70;;;;;;5060011;28;20437;-69
2022/07/14 12:46:16;;;;;;;4.40;2.60;;;37.60;2.30;;;;;;5060364;28;20436;-72
2022/07/14 12:48:51;;;;;;;9.13;2.67;;;36.40;2.90;;;;;;5062922;28;20437;-69
2022/07/14 12:51:20;;;;;;;5.70;2.70;;;35.30;3.40;;;;;;5070589;28;20433;-70
2022/07/14 12:54:01;;;;;;;4.57;2.70;;;35.10;4.00;;;;;;5062541;28;20541;-70
2022/07/14 12:56:29;;;;;;;4.27;2.77;;;35.10;4.90;;;;;;5042795;28;20424;-70
2022/07/14 12:58:59;;;;;;;3.13;2.67;;;36.00;3.70;;;;;;5044534;28;20457;-70
2022/07/14 13:01:25;;;;;;;5.40;2.70;;;35.40;3.90;;;;;;5064383;28;20478;-71
2022/07/14 13:03:59;;;;;;;11.83;2.60;;;35.30;4.10;;;;;;5057642;28;20441;-70
2022/07/14 13:06:27;;;;;;;4.73;2.80;;;36.50;4.00;;;;;;5059434;28;20418;-70
2022/07/14 13:08:52;;;;;;;7.90;2.53;;;36.30;3.60;;;;;;5070359;28;20440;-71